D/T METAR WX W/DIR W/SPE G/SPE TEMP DEWP
27/05/19 08:50 EGPL 270750Z 01005KT 9999 FEW018 SCT044 10/04 Q1007 N (10°) 5.8mph 10°C 4°C
27/05/19 08:20 EGPL 270720Z 04006KT 9999 FEW018 SCT040 10/04 Q1007 NE (40°) 6.9mph 10°C 4°C
27/05/19 07:50 EGPL 270650Z 03005KT 9999 FEW018 SCT040 09/05 Q1007 NNE (30°) 5.8mph 9°C 5°C
27/05/19 07:20 EGPL 270620Z 03004KT 9999 FEW016 09/05 Q1007 NNE (30°) 4.6mph 9°C 5°C
27/05/19 06:50 EGPL 270550Z AUTO 03003KT 9999 NCD 08/06 Q1007 NNE (30°) 3.5mph 8°C 6°C
27/05/19 06:20 EGPL 270520Z AUTO 02004KT 9999 FEW041/// 06/05 Q1007 NNE (20°) 4.6mph 6°C 5°C
27/05/19 05:50 EGPL 270450Z AUTO 36004KT 9999 BKN038/// 06/04 Q1007 N (360°) 4.6mph 6°C 4°C
27/05/19 05:20 EGPL 270420Z AUTO 35004KT 9999 FEW039/// 06/04 Q1007 N (350°) 4.6mph 6°C 4°C
27/05/19 04:50 EGPL 270350Z AUTO 36004KT 9999 NCD 06/04 Q1007 N (360°) 4.6mph 6°C 4°C
27/05/19 04:20 EGPL 270320Z AUTO 36005KT 9999 FEW035/// SCT042/// 07/05 Q1007 N (360°) 5.8mph 7°C 5°C
27/05/19 03:50 EGPL 270250Z AUTO 36006KT 9999 SCT039/// 08/05 Q1007 N (360°) 6.9mph 8°C 5°C
27/05/19 03:20 EGPL 270220Z AUTO 35006KT 9999 FEW037/// 07/05 Q1007 N (350°) 6.9mph 7°C 5°C
27/05/19 02:50 EGPL 270150Z AUTO 35006KT 9999 SCT047/// 07/05 Q1007 N (350°) 6.9mph 7°C 5°C
27/05/19 02:20 EGPL 270120Z AUTO 35005KT 9999 OVC045/// 08/05 Q1007 N (350°) 5.8mph 8°C 5°C
27/05/19 01:50 EGPL 270050Z AUTO 35005KT 9999 SCT048/// 08/05 Q1007 N (350°) 5.8mph 8°C 5°C
27/05/19 01:20 EGPL 270020Z AUTO 34005KT 9999 BKN045/// 08/05 Q1007 NNW (340°) 5.8mph 8°C 5°C
27/05/19 00:50 EGPL 262350Z AUTO 35006KT 9999 SCT046/// 08/05 Q1006 N (350°) 6.9mph 8°C 5°C
26/05/19 23:50 EGPL 262250Z AUTO 36009KT 9999 OVC042/// 08/05 Q1006 N (360°) 10.4mph 8°C 5°C
26/05/19 23:20 EGPL 262220Z AUTO 01011KT 9999 BKN041/// 08/05 Q1006 N (10°) 12.7mph 8°C 5°C
26/05/19 22:50 EGPL 262150Z AUTO 01015KT 9999 OVC040/// 08/05 Q1005 N (10°) 17.3mph 8°C 5°C
26/05/19 22:20 EGPL 262120Z AUTO 01013KT 9999 FEW026/// BKN041/// 08/05 Q1005 N (10°) 15.0mph 8°C 5°C
26/05/19 21:50 EGPL 262050Z AUTO 01015KT 9999 BKN024/// BKN033/// BKN041/// 08/05 Q1005 N (10°) 17.3mph 8°C 5°C
26/05/19 21:20 EGPL 262020Z AUTO 01015KT 9999 FEW021/// 08/05 Q1004 N (10°) 17.3mph 8°C 5°C
26/05/19 20:50 EGPL 261950Z AUTO 01016KT 9999 OVC020/// 09/06 Q1004 N (10°) 18.4mph 9°C 6°C
26/05/19 20:20 EGPL 261920Z AUTO 36014KT 9999 BKN015/// OVC021/// 09/06 Q1004 N (360°) 16.1mph 9°C 6°C
26/05/19 19:50 EGPL 261850Z AUTO 36015KT 9999 BKN014/// BKN020/// OVC027/// 09/06 Q1003 N (360°) 17.3mph 9°C 6°C
26/05/19 19:20 EGPL 261820Z AUTO 35015KT 9999 BKN010/// OVC021/// 09/07 Q1003 N (350°) 17.3mph 9°C 7°C
26/05/19 18:50 EGPL 261750Z AUTO 35015KT 9999 BKN011/// OVC017/// 09/07 Q1002 N (350°) 17.3mph 9°C 7°C
26/05/19 17:50 EGPL 261650Z AUTO 31015KT 9999 BKN009/// OVC016/// 10/09 Q1002 NW (310°) 17.3mph 10°C 9°C
26/05/19 17:20 EGPL 261620Z AUTO 31017KT 9999 BKN010/// 11/09 Q1001 NW (310°) 19.6mph 11°C 9°C
26/05/19 16:50 EGPL 261550Z 32016KT 9999 SCT007 SCT020 11/10 Q1000 NW (320°) 18.4mph 11°C 10°C
26/05/19 16:20 EGPL 261520Z 26019KT 9999 SCT005 BKN006 11/10 Q1000 W (260°) 21.9mph 11°C 10°C
26/05/19 15:50 EGPL 261450Z 25024KT 8000 BKN005 11/10 Q1000 WSW (250°) 27.6mph 11°C 10°C
26/05/19 15:20 EGPL 261420Z 25024KT 9000 -RA SCT004 BKN006 10/09 Q1001 -RA WSW (250°) 27.6mph 10°C 9°C
26/05/19 14:50 EGPL 261350Z 25024KT 9000 -RA SCT006 BKN010 10/09 Q1001 -RA WSW (250°) 27.6mph 10°C 9°C
26/05/19 14:20 EGPL 261320Z 25023KT 3500 -RA BR SCT004 BKN005 11/10 Q1002 -RA BR WSW (250°) 26.5mph 11°C 10°C
26/05/19 13:50 EGPL 261250Z AUTO 25026KT 9999 BKN006/// 11/10 Q1002 WSW (250°) 29.9mph 11°C 10°C
26/05/19 13:20 EGPL 261220Z AUTO 25027G37KT 9000 BKN008/// OVC033/// 11/10 Q1002 WSW (250°) 31.1mph 42.6mph 11°C 10°C
26/05/19 12:50 EGPL 261150Z AUTO 25026KT 9999 BKN007/// BKN014/// OVC028/// 11/10 Q1002 WSW (250°) 29.9mph 11°C 10°C
26/05/19 12:20 EGPL 261120Z AUTO 25026KT 5000 -RA BKN005/// OVC034/// 11/10 Q1002 -RA WSW (250°) 29.9mph 11°C 10°C
26/05/19 11:50 EGPL 261050Z AUTO 26023KT 9999 OVC007/// 12/10 Q1002 W (260°) 26.5mph 12°C 10°C
26/05/19 11:20 EGPL 261020Z AUTO 26023KT 9999 OVC007/// 12/10 Q1002 W (260°) 26.5mph 12°C 10°C
26/05/19 10:50 EGPL 260950Z AUTO 25019KT 9000 BKN005/// BKN009/// 12/11 Q1002 WSW (250°) 21.9mph 12°C 11°C
26/05/19 10:20 EGPL 260920Z AUTO 25019KT 9999 BKN004/// 12/11 Q1002 WSW (250°) 21.9mph 12°C 11°C
26/05/19 09:50 EGPL 260850Z AUTO 25020KT 9999 OVC005/// 12/11 Q1002 WSW (250°) 23.0mph 12°C 11°C
26/05/19 09:20 EGPL 260820Z AUTO 25018KT 9999 BKN004/// OVC008/// 12/11 Q1002 WSW (250°) 20.7mph 12°C 11°C
26/05/19 08:50 EGPL 260750Z AUTO 25018KT 9999 BKN003/// OVC008/// 12/11 Q1002 WSW (250°) 20.7mph 12°C 11°C
26/05/19 08:20 EGPL 260720Z AUTO 25017KT 9999 BKN003/// OVC006/// 11/11 Q1002 WSW (250°) 19.6mph 11°C 11°C